sensor_id;sensor_type;location;lat;lon;timestamp;temperature;humidity
18321;DHT22;54904;54.350;18.664;2023-08-20T00:01:12;25.20;99.90
18321;DHT22;54904;54.350;18.664;2023-08-20T00:03:40;25.20;99.90
18321;DHT22;54904;54.350;18.664;2023-08-20T00:06:10;25.20;99.90
18321;DHT22;54904;54.350;18.664;2023-08-20T00:08:37;25.10;99.90
18321;DHT22;54904;54.350;18.664;2023-08-20T00:11:04;25.10;99.90
18321;DHT22;54904;54.350;18.664;2023-08-20T00:13:31;25.10;99.90
18321;DHT22;54904;54.350;18.664;2023-08-20T00:16:00;25.10;99.90
18321;DHT22;54904;54.350;18.664;2023-08-20T00:18:28;25.20;99.90
18321;DHT22;54904;54.350;18.664;2023-08-20T00:20:55;25.20;99.90
18321;DHT22;54904;54.350;18.664;2023-08-20T00:23:23;25.20;99.90
18321;DHT22;54904;54.350;18.664;2023-08-20T00:25:51;25.20;99.90
18321;DHT22;54904;54.350;18.664;2023-08-20T00:28:20;25.20;99.90
18321;DHT22;54904;54.350;18.664;2023-08-20T00:30:47;25.20;99.90
18321;DHT22;54904;54.350;18.664;2023-08-20T00:33:17;25.10;99.90
18321;DHT22;54904;54.350;18.664;2023-08-20T00:35:44;25.10;99.90
18321;DHT22;54904;54.350;18.664;2023-08-20T00:38:11;25.10;99.90
18321;DHT22;54904;54.350;18.664;2023-08-20T00:40:38;25.10;99.90
18321;DHT22;54904;54.350;18.664;2023-08-20T00:43:05;25.10;99.90
18321;DHT22;54904;54.350;18.664;2023-08-20T00:45:34;25.10;99.90
18321;DHT22;54904;54.350;18.664;2023-08-20T00:48:01;25.10;99.90
18321;DHT22;54904;54.350;18.664;2023-08-20T00:50:30;25.10;99.90
18321;DHT22;54904;54.350;18.664;2023-08-20T00:52:57;25.10;99.90
18321;DHT22;54904;54.350;18.664;2023-08-20T00:55:24;25.10;99.90
18321;DHT22;54904;54.350;18.664;2023-08-20T00:57:52;25.10;99.90
18321;DHT22;54904;54.350;18.664;2023-08-20T01:00:19;25.10;99.90
18321;DHT22;54904;54.350;18.664;2023-08-20T01:02:47;25.00;99.90
18321;DHT22;54904;54.350;18.664;2023-08-20T01:05:15;25.00;99.90
18321;DHT22;54904;54.350;18.664;2023-08-20T01:07:54;25.00;99.90
18321;DHT22;54904;54.350;18.664;2023-08-20T01:10:29;24.90;99.90
18321;DHT22;54904;54.350;18.664;2023-08-20T01:13:00;24.90;99.90
18321;DHT22;54904;54.350;18.664;2023-08-20T01:15:29;24.90;99.90
18321;DHT22;54904;54.350;18.664;2023-08-20T01:17:56;24.80;99.90
18321;DHT22;54904;54.350;18.664;2023-08-20T01:20:27;24.80;99.90
18321;DHT22;54904;54.350;18.664;2023-08-20T01:23:32;24.80;99.90
18321;DHT22;54904;54.350;18.664;2023-08-20T01:26:30;24.70;99.90
18321;DHT22;54904;54.350;18.664;2023-08-20T01:29:01;24.70;99.90
18321;DHT22;54904;54.350;18.664;2023-08-20T01:31:29;24.70;99.90
18321;DHT22;54904;54.350;18.664;2023-08-20T01:33:57;24.70;99.90
18321;DHT22;54904;54.350;18.664;2023-08-20T01:36:24;24.60;99.90
18321;DHT22;54904;54.350;18.664;2023-08-20T01:38:51;24.60;99.90
18321;DHT22;54904;54.350;18.664;2023-08-20T01:41:18;24.60;99.90
18321;DHT22;54904;54.350;18.664;2023-08-20T01:43:45;24.60;99.90
18321;DHT22;54904;54.350;18.664;2023-08-20T01:46:14;24.60;99.90
18321;DHT22;54904;54.350;18.664;2023-08-20T01:48:41;24.60;99.90
18321;DHT22;54904;54.350;18.664;2023-08-20T01:51:08;24.60;99.90
18321;DHT22;54904;54.350;18.664;2023-08-20T01:53:37;24.60;99.90
18321;DHT22;54904;54.350;18.664;2023-08-20T01:56:10;24.60;99.90
18321;DHT22;54904;54.350;18.664;2023-08-20T01:58:38;24.50;99.90
18321;DHT22;54904;54.350;18.664;2023-08-20T02:01:05;24.50;99.90
18321;DHT22;54904;54.350;18.664;2023-08-20T02:03:36;24.50;99.90
18321;DHT22;54904;54.350;18.664;2023-08-20T02:06:03;24.50;99.90
18321;DHT22;54904;54.350;18.664;2023-08-20T02:08:30;24.50;99.90
18321;DHT22;54904;54.350;18.664;2023-08-20T02:11:01;24.50;99.90
18321;DHT22;54904;54.350;18.664;2023-08-20T02:13:30;24.40;99.90
18321;DHT22;54904;54.350;18.664;2023-08-20T02:15:58;24.40;99.90
18321;DHT22;54904;54.350;18.664;2023-08-20T02:18:27;24.30;99.90
18321;DHT22;54904;54.350;18.664;2023-08-20T02:20:56;24.40;99.90
18321;DHT22;54904;54.350;18.664;2023-08-20T02:23:23;24.30;99.90
18321;DHT22;54904;54.350;18.664;2023-08-20T02:25:51;24.30;99.90
18321;DHT22;54904;54.350;18.664;2023-08-20T02:28:18;24.20;99.90
18321;DHT22;54904;54.350;18.664;2023-08-20T02:30:46;24.30;99.90
18321;DHT22;54904;54.350;18.664;2023-08-20T02:33:13;24.30;99.90
18321;DHT22;54904;54.350;18.664;2023-08-20T02:35:40;24.30;99.90
18321;DHT22;54904;54.350;18.664;2023-08-20T02:38:09;24.20;99.90
18321;DHT22;54904;54.350;18.664;2023-08-20T02:40:40;24.20;99.90
18321;DHT22;54904;54.350;18.664;2023-08-20T02:43:08;24.10;99.90
18321;DHT22;54904;54.350;18.664;2023-08-20T02:45:40;24.10;99.90
18321;DHT22;54904;54.350;18.664;2023-08-20T02:48:08;24.10;99.90
18321;DHT22;54904;54.350;18.664;2023-08-20T02:50:35;24.10;99.90
18321;DHT22;54904;54.350;18.664;2023-08-20T02:53:03;24.10;99.90
18321;DHT22;54904;54.350;18.664;2023-08-20T02:55:32;24.10;99.90
18321;DHT22;54904;54.350;18.664;2023-08-20T02:57:59;24.20;99.90
18321;DHT22;54904;54.350;18.664;2023-08-20T03:00:28;24.20;99.90
18321;DHT22;54904;54.350;18.664;2023-08-20T03:02:55;24.10;99.90
18321;DHT22;54904;54.350;18.664;2023-08-20T03:05:24;24.00;99.90
18321;DHT22;54904;54.350;18.664;2023-08-20T03:07:51;24.00;99.90
18321;DHT22;54904;54.350;18.664;2023-08-20T03:10:18;24.00;99.90
18321;DHT22;54904;54.350;18.664;2023-08-20T03:12:46;23.90;99.90
18321;DHT22;54904;54.350;18.664;2023-08-20T03:15:13;23.90;99.90
18321;DHT22;54904;54.350;18.664;2023-08-20T03:17:40;23.90;99.90
18321;DHT22;54904;54.350;18.664;2023-08-20T03:20:09;23.90;99.90
18321;DHT22;54904;54.350;18.664;2023-08-20T03:22:37;23.90;99.90
18321;DHT22;54904;54.350;18.664;2023-08-20T03:25:04;23.80;99.90
18321;DHT22;54904;54.350;18.664;2023-08-20T03:27:32;23.90;99.90
18321;DHT22;54904;54.350;18.664;2023-08-20T03:30:00;23.80;99.90
18321;DHT22;54904;54.350;18.664;2023-08-20T03:32:28;23.90;99.90
18321;DHT22;54904;54.350;18.664;2023-08-20T03:34:55;23.90;99.90
18321;DHT22;54904;54.350;18.664;2023-08-20T03:37:23;23.90;99.90
18321;DHT22;54904;54.350;18.664;2023-08-20T03:39:50;23.90;99.90
18321;DHT22;54904;54.350;18.664;2023-08-20T03:42:17;23.90;99.90
18321;DHT22;54904;54.350;18.664;2023-08-20T03:44:44;23.90;99.90
18321;DHT22;54904;54.350;18.664;2023-08-20T03:47:12;23.80;99.90
18321;DHT22;54904;54.350;18.664;2023-08-20T03:49:40;23.80;99.90
18321;DHT22;54904;54.350;18.664;2023-08-20T03:52:07;23.80;99.90
18321;DHT22;54904;54.350;18.664;2023-08-20T03:54:34;23.70;99.90
18321;DHT22;54904;54.350;18.664;2023-08-20T03:57:01;23.80;99.90
18321;DHT22;54904;54.350;18.664;2023-08-20T03:59:29;23.80;99.90
18321;DHT22;54904;54.350;18.664;2023-08-20T04:01:57;23.80;99.90
18321;DHT22;54904;54.350;18.664;2023-08-20T04:04:26;23.80;99.90
18321;DHT22;54904;54.350;18.664;2023-08-20T04:06:53;23.80;99.90
18321;DHT22;54904;54.350;18.664;2023-08-20T04:09:20;23.80;99.90
18321;DHT22;54904;54.350;18.664;2023-08-20T04:11:48;23.80;99.90
18321;DHT22;54904;54.350;18.664;2023-08-20T04:14:15;23.80;99.90
18321;DHT22;54904;54.350;18.664;2023-08-20T04:16:42;23.80;99.90
18321;DHT22;54904;54.350;18.664;2023-08-20T04:19:09;23.80;99.90
18321;DHT22;54904;54.350;18.664;2023-08-20T04:21:38;23.90;99.90
18321;DHT22;54904;54.350;18.664;2023-08-20T04:24:05;23.90;99.90
18321;DHT22;54904;54.350;18.664;2023-08-20T04:26:33;24.00;99.90
18321;DHT22;54904;54.350;18.664;2023-08-20T04:29:00;24.00;99.90
18321;DHT22;54904;54.350;18.664;2023-08-20T04:31:31;24.00;99.90
18321;DHT22;54904;54.350;18.664;2023-08-20T04:34:07;24.10;99.90
18321;DHT22;54904;54.350;18.664;2023-08-20T04:36:41;24.10;99.90
18321;DHT22;54904;54.350;18.664;2023-08-20T04:39:09;24.10;99.90
18321;DHT22;54904;54.350;18.664;2023-08-20T04:41:39;24.20;99.90
18321;DHT22;54904;54.350;18.664;2023-08-20T04:44:11;24.20;99.90
18321;DHT22;54904;54.350;18.664;2023-08-20T04:46:38;24.20;99.90
18321;DHT22;54904;54.350;18.664;2023-08-20T04:49:05;24.20;99.90
18321;DHT22;54904;54.350;18.664;2023-08-20T04:51:32;24.20;99.90
18321;DHT22;54904;54.350;18.664;2023-08-20T04:54:00;24.30;99.90
18321;DHT22;54904;54.350;18.664;2023-08-20T04:56:28;24.30;99.90
18321;DHT22;54904;54.350;18.664;2023-08-20T04:58:56;24.30;99.90
18321;DHT22;54904;54.350;18.664;2023-08-20T05:01:41;24.30;99.90
18321;DHT22;54904;54.350;18.664;2023-08-20T05:04:09;24.30;99.90
18321;DHT22;54904;54.350;18.664;2023-08-20T05:06:36;24.30;99.90
18321;DHT22;54904;54.350;18.664;2023-08-20T05:09:05;24.40;99.90
18321;DHT22;54904;54.350;18.664;2023-08-20T05:11:32;24.40;99.90
18321;DHT22;54904;54.350;18.664;2023-08-20T05:14:00;24.40;99.90
18321;DHT22;54904;54.350;18.664;2023-08-20T05:16:27;24.50;99.90
18321;DHT22;54904;54.350;18.664;2023-08-20T05:18:54;24.50;99.90
18321;DHT22;54904;54.350;18.664;2023-08-20T05:21:22;24.60;99.90
18321;DHT22;54904;54.350;18.664;2023-08-20T05:23:49;24.60;99.90
18321;DHT22;54904;54.350;18.664;2023-08-20T05:26:18;24.60;99.90
18321;DHT22;54904;54.350;18.664;2023-08-20T05:28:45;24.70;99.90
18321;DHT22;54904;54.350;18.664;2023-08-20T05:31:12;24.70;99.90
18321;DHT22;54904;54.350;18.664;2023-08-20T05:33:40;24.70;99.90
18321;DHT22;54904;54.350;18.664;2023-08-20T05:36:10;24.80;99.90
18321;DHT22;54904;54.350;18.664;2023-08-20T05:38:37;24.80;99.90
18321;DHT22;54904;54.350;18.664;2023-08-20T05:41:04;24.80;99.90
18321;DHT22;54904;54.350;18.664;2023-08-20T05:43:32;24.80;99.90
18321;DHT22;54904;54.350;18.664;2023-08-20T05:46:00;24.90;99.90
18321;DHT22;54904;54.350;18.664;2023-08-20T05:48:27;24.90;99.90
18321;DHT22;54904;54.350;18.664;2023-08-20T05:50:55;24.90;99.90
18321;DHT22;54904;54.350;18.664;2023-08-20T05:53:23;25.00;99.90
18321;DHT22;54904;54.350;18.664;2023-08-20T05:55:50;25.00;99.90
18321;DHT22;54904;54.350;18.664;2023-08-20T05:58:17;25.00;99.90
18321;DHT22;54904;54.350;18.664;2023-08-20T06:00:47;25.00;99.90
18321;DHT22;54904;54.350;18.664;2023-08-20T06:03:15;25.10;99.90
18321;DHT22;54904;54.350;18.664;2023-08-20T06:05:42;25.10;99.90
18321;DHT22;54904;54.350;18.664;2023-08-20T06:08:09;25.10;99.90
18321;DHT22;54904;54.350;18.664;2023-08-20T06:10:36;25.20;99.90
18321;DHT22;54904;54.350;18.664;2023-08-20T06:13:03;25.20;99.90
18321;DHT22;54904;54.350;18.664;2023-08-20T06:15:32;25.20;99.90
18321;DHT22;54904;54.350;18.664;2023-08-20T06:18:00;25.20;99.90
18321;DHT22;54904;54.350;18.664;2023-08-20T06:20:27;25.30;99.90
18321;DHT22;54904;54.350;18.664;2023-08-20T06:22:54;25.30;99.90
18321;DHT22;54904;54.350;18.664;2023-08-20T06:25:21;25.30;99.90
18321;DHT22;54904;54.350;18.664;2023-08-20T06:27:48;25.30;99.90
18321;DHT22;54904;54.350;18.664;2023-08-20T06:30:16;25.30;99.90
18321;DHT22;54904;54.350;18.664;2023-08-20T06:32:44;25.40;99.90
18321;DHT22;54904;54.350;18.664;2023-08-20T06:35:12;25.40;99.90
18321;DHT22;54904;54.350;18.664;2023-08-20T06:37:40;25.40;99.90
18321;DHT22;54904;54.350;18.664;2023-08-20T06:40:08;25.40;99.90
18321;DHT22;54904;54.350;18.664;2023-08-20T06:42:35;25.40;99.90
18321;DHT22;54904;54.350;18.664;2023-08-20T06:45:03;25.40;99.90
18321;DHT22;54904;54.350;18.664;2023-08-20T06:47:30;25.50;99.90
18321;DHT22;54904;54.350;18.664;2023-08-20T06:49:57;25.50;99.90
18321;DHT22;54904;54.350;18.664;2023-08-20T06:52:25;25.50;99.90
18321;DHT22;54904;54.350;18.664;2023-08-20T06:54:52;25.60;99.90
18321;DHT22;54904;54.350;18.664;2023-08-20T06:57:20;25.60;99.90
18321;DHT22;54904;54.350;18.664;2023-08-20T06:59:47;25.60;99.90
18321;DHT22;54904;54.350;18.664;2023-08-20T07:02:17;25.70;99.90
18321;DHT22;54904;54.350;18.664;2023-08-20T07:04:44;25.70;99.90
18321;DHT22;54904;54.350;18.664;2023-08-20T07:07:12;25.70;99.90
18321;DHT22;54904;54.350;18.664;2023-08-20T07:09:41;25.70;99.90
18321;DHT22;54904;54.350;18.664;2023-08-20T07:12:08;25.70;99.90
18321;DHT22;54904;54.350;18.664;2023-08-20T07:14:35;25.80;99.90
18321;DHT22;54904;54.350;18.664;2023-08-20T07:17:03;25.80;99.90
18321;DHT22;54904;54.350;18.664;2023-08-20T07:19:31;25.90;99.90
18321;DHT22;54904;54.350;18.664;2023-08-20T07:21:58;25.90;99.90
18321;DHT22;54904;54.350;18.664;2023-08-20T07:24:25;25.90;99.90
18321;DHT22;54904;54.350;18.664;2023-08-20T07:26:54;25.90;99.90
18321;DHT22;54904;54.350;18.664;2023-08-20T07:29:26;25.90;99.90
18321;DHT22;54904;54.350;18.664;2023-08-20T07:31:55;26.00;99.90
18321;DHT22;54904;54.350;18.664;2023-08-20T07:34:23;26.00;99.90
18321;DHT22;54904;54.350;18.664;2023-08-20T07:36:50;26.00;99.90
18321;DHT22;54904;54.350;18.664;2023-08-20T07:39:17;26.10;99.90
18321;DHT22;54904;54.350;18.664;2023-08-20T07:41:44;26.10;99.90
18321;DHT22;54904;54.350;18.664;2023-08-20T07:44:12;26.10;99.90
18321;DHT22;54904;54.350;18.664;2023-08-20T07:46:40;26.20;99.90
18321;DHT22;54904;54.350;18.664;2023-08-20T07:49:07;26.20;99.90
18321;DHT22;54904;54.350;18.664;2023-08-20T07:51:34;26.30;99.90
18321;DHT22;54904;54.350;18.664;2023-08-20T07:54:01;26.30;99.90
18321;DHT22;54904;54.350;18.664;2023-08-20T07:56:28;26.30;99.90
18321;DHT22;54904;54.350;18.664;2023-08-20T07:58:55;26.40;99.90
18321;DHT22;54904;54.350;18.664;2023-08-20T08:01:23;26.40;99.90
18321;DHT22;54904;54.350;18.664;2023-08-20T08:03:51;26.40;99.90
18321;DHT22;54904;54.350;18.664;2023-08-20T08:06:18;26.40;99.90
18321;DHT22;54904;54.350;18.664;2023-08-20T08:08:47;26.50;99.90
18321;DHT22;54904;54.350;18.664;2023-08-20T08:11:14;26.60;99.90
18321;DHT22;54904;54.350;18.664;2023-08-20T08:13:41;26.60;99.90
18321;DHT22;54904;54.350;18.664;2023-08-20T08:16:08;26.60;99.90
18321;DHT22;54904;54.350;18.664;2023-08-20T08:18:37;26.60;99.90
18321;DHT22;54904;54.350;18.664;2023-08-20T08:21:04;26.70;99.90
18321;DHT22;54904;54.350;18.664;2023-08-20T08:23:31;26.70;99.90
18321;DHT22;54904;54.350;18.664;2023-08-20T08:25:58;26.70;99.90
18321;DHT22;54904;54.350;18.664;2023-08-20T08:28:25;26.80;99.90
18321;DHT22;54904;54.350;18.664;2023-08-20T08:30:52;26.80;99.90
18321;DHT22;54904;54.350;18.664;2023-08-20T08:33:19;26.80;99.90
18321;DHT22;54904;54.350;18.664;2023-08-20T08:35:48;26.90;99.90
18321;DHT22;54904;54.350;18.664;2023-08-20T08:38:15;26.90;99.90
18321;DHT22;54904;54.350;18.664;2023-08-20T08:40:42;26.90;99.90
18321;DHT22;54904;54.350;18.664;2023-08-20T08:43:10;27.00;99.90
18321;DHT22;54904;54.350;18.664;2023-08-20T08:45:44;27.00;99.90
18321;DHT22;54904;54.350;18.664;2023-08-20T08:48:12;27.00;99.90
18321;DHT22;54904;54.350;18.664;2023-08-20T08:50:40;27.00;99.90
18321;DHT22;54904;54.350;18.664;2023-08-20T08:53:09;27.00;99.90
18321;DHT22;54904;54.350;18.664;2023-08-20T08:55:36;27.10;99.90
18321;DHT22;54904;54.350;18.664;2023-08-20T08:58:04;27.10;99.90
18321;DHT22;54904;54.350;18.664;2023-08-20T09:00:31;27.10;99.90
18321;DHT22;54904;54.350;18.664;2023-08-20T09:02:58;27.10;99.90
18321;DHT22;54904;54.350;18.664;2023-08-20T09:05:26;27.10;99.90
18321;DHT22;54904;54.350;18.664;2023-08-20T09:07:56;27.20;99.90
18321;DHT22;54904;54.350;18.664;2023-08-20T09:10:27;27.20;99.90
18321;DHT22;54904;54.350;18.664;2023-08-20T09:12:55;27.20;99.90
18321;DHT22;54904;54.350;18.664;2023-08-20T09:15:31;27.20;99.90
18321;DHT22;54904;54.350;18.664;2023-08-20T09:18:01;27.30;99.90
18321;DHT22;54904;54.350;18.664;2023-08-20T09:20:35;27.40;99.90
18321;DHT22;54904;54.350;18.664;2023-08-20T09:23:03;27.50;99.90
18321;DHT22;54904;54.350;18.664;2023-08-20T09:25:32;27.60;99.90
18321;DHT22;54904;54.350;18.664;2023-08-20T09:28:02;27.80;99.90
18321;DHT22;54904;54.350;18.664;2023-08-20T09:30:29;27.80;99.90
18321;DHT22;54904;54.350;18.664;2023-08-20T09:33:04;28.00;99.90
18321;DHT22;54904;54.350;18.664;2023-08-20T09:35:34;28.00;99.90
18321;DHT22;54904;54.350;18.664;2023-08-20T09:38:03;28.00;99.90
18321;DHT22;54904;54.350;18.664;2023-08-20T09:40:32;28.00;99.90
18321;DHT22;54904;54.350;18.664;2023-08-20T09:43:00;28.00;99.90
18321;DHT22;54904;54.350;18.664;2023-08-20T09:45:28;28.10;99.90
18321;DHT22;54904;54.350;18.664;2023-08-20T09:47:56;28.20;99.90
18321;DHT22;54904;54.350;18.664;2023-08-20T09:50:25;28.20;99.90
18321;DHT22;54904;54.350;18.664;2023-08-20T09:52:57;28.20;99.90
18321;DHT22;54904;54.350;18.664;2023-08-20T09:55:30;28.30;99.90
18321;DHT22;54904;54.350;18.664;2023-08-20T09:58:02;28.30;99.90
18321;DHT22;54904;54.350;18.664;2023-08-20T10:00:30;28.30;99.90
18321;DHT22;54904;54.350;18.664;2023-08-20T10:02:58;28.30;99.90
18321;DHT22;54904;54.350;18.664;2023-08-20T10:05:26;28.30;99.90
18321;DHT22;54904;54.350;18.664;2023-08-20T10:10:22;28.30;99.90
18321;DHT22;54904;54.350;18.664;2023-08-20T10:12:49;28.30;99.90
18321;DHT22;54904;54.350;18.664;2023-08-20T10:15:18;28.30;99.90
18321;DHT22;54904;54.350;18.664;2023-08-20T10:17:45;28.40;99.90
18321;DHT22;54904;54.350;18.664;2023-08-20T10:20:14;28.40;99.90
18321;DHT22;54904;54.350;18.664;2023-08-20T10:22:43;28.40;99.90
18321;DHT22;54904;54.350;18.664;2023-08-20T10:25:11;28.50;99.90
18321;DHT22;54904;54.350;18.664;2023-08-20T10:27:40;28.60;99.90
18321;DHT22;54904;54.350;18.664;2023-08-20T10:30:09;28.60;99.90
18321;DHT22;54904;54.350;18.664;2023-08-20T10:32:47;28.60;99.90
18321;DHT22;54904;54.350;18.664;2023-08-20T10:35:16;28.60;99.90
18321;DHT22;54904;54.350;18.664;2023-08-20T10:38:01;28.60;99.90
18321;DHT22;54904;54.350;18.664;2023-08-20T10:40:47;28.60;99.90
18321;DHT22;54904;54.350;18.664;2023-08-20T10:43:27;28.60;99.90
18321;DHT22;54904;54.350;18.664;2023-08-20T10:46:05;28.70;99.90
18321;DHT22;54904;54.350;18.664;2023-08-20T10:48:36;28.60;99.90
18321;DHT22;54904;54.350;18.664;2023-08-20T10:51:11;28.50;99.90
18321;DHT22;54904;54.350;18.664;2023-08-20T10:53:39;28.40;99.90
18321;DHT22;54904;54.350;18.664;2023-08-20T10:56:11;28.40;99.90
18321;DHT22;54904;54.350;18.664;2023-08-20T10:58:41;28.30;99.90
18321;DHT22;54904;54.350;18.664;2023-08-20T11:01:15;28.30;99.90
18321;DHT22;54904;54.350;18.664;2023-08-20T11:03:47;28.20;99.90
18321;DHT22;54904;54.350;18.664;2023-08-20T11:06:15;28.20;99.90
18321;DHT22;54904;54.350;18.664;2023-08-20T11:08:43;28.20;99.90
18321;DHT22;54904;54.350;18.664;2023-08-20T11:11:10;28.20;99.90
18321;DHT22;54904;54.350;18.664;2023-08-20T11:13:38;28.10;99.90
18321;DHT22;54904;54.350;18.664;2023-08-20T11:16:06;28.00;99.90
18321;DHT22;54904;54.350;18.664;2023-08-20T11:18:35;28.00;99.90
18321;DHT22;54904;54.350;18.664;2023-08-20T11:21:03;27.90;99.90
18321;DHT22;54904;54.350;18.664;2023-08-20T11:23:31;27.90;99.90
18321;DHT22;54904;54.350;18.664;2023-08-20T11:25:58;27.80;99.90
18321;DHT22;54904;54.350;18.664;2023-08-20T11:28:26;27.70;99.90
18321;DHT22;54904;54.350;18.664;2023-08-20T11:30:54;27.70;99.90
18321;DHT22;54904;54.350;18.664;2023-08-20T11:33:22;27.60;99.90
18321;DHT22;54904;54.350;18.664;2023-08-20T11:35:50;27.60;99.90
18321;DHT22;54904;54.350;18.664;2023-08-20T11:38:20;27.50;99.90
18321;DHT22;54904;54.350;18.664;2023-08-20T11:40:48;27.50;99.90
18321;DHT22;54904;54.350;18.664;2023-08-20T11:43:15;27.40;99.90
18321;DHT22;54904;54.350;18.664;2023-08-20T11:45:47;27.40;99.90
18321;DHT22;54904;54.350;18.664;2023-08-20T11:48:15;27.40;99.90
18321;DHT22;54904;54.350;18.664;2023-08-20T11:50:43;27.40;99.90
18321;DHT22;54904;54.350;18.664;2023-08-20T11:53:10;27.40;99.90
18321;DHT22;54904;54.350;18.664;2023-08-20T11:55:40;27.30;99.90
18321;DHT22;54904;54.350;18.664;2023-08-20T11:58:12;27.30;99.90
18321;DHT22;54904;54.350;18.664;2023-08-20T12:00:39;27.30;99.90
18321;DHT22;54904;54.350;18.664;2023-08-20T12:03:07;27.30;99.90
18321;DHT22;54904;54.350;18.664;2023-08-20T12:05:35;27.20;99.90
18321;DHT22;54904;54.350;18.664;2023-08-20T12:08:03;27.20;99.90
18321;DHT22;54904;54.350;18.664;2023-08-20T12:10:32;27.20;99.90
18321;DHT22;54904;54.350;18.664;2023-08-20T12:13:02;27.10;99.90
18321;DHT22;54904;54.350;18.664;2023-08-20T12:15:29;27.00;99.90
18321;DHT22;54904;54.350;18.664;2023-08-20T12:18:00;27.00;99.90
18321;DHT22;54904;54.350;18.664;2023-08-20T12:20:31;27.00;99.90
18321;DHT22;54904;54.350;18.664;2023-08-20T12:23:00;27.00;99.90
18321;DHT22;54904;54.350;18.664;2023-08-20T12:25:29;27.10;99.90
18321;DHT22;54904;54.350;18.664;2023-08-20T12:27:56;27.20;99.90
18321;DHT22;54904;54.350;18.664;2023-08-20T12:30:25;27.30;99.90
18321;DHT22;54904;54.350;18.664;2023-08-20T12:32:52;27.40;99.90
18321;DHT22;54904;54.350;18.664;2023-08-20T12:35:19;27.40;99.90
18321;DHT22;54904;54.350;18.664;2023-08-20T12:37:47;27.40;99.90
18321;DHT22;54904;54.350;18.664;2023-08-20T12:40:14;27.50;99.90
18321;DHT22;54904;54.350;18.664;2023-08-20T12:42:41;27.50;99.90
18321;DHT22;54904;54.350;18.664;2023-08-20T12:45:09;27.50;99.90
18321;DHT22;54904;54.350;18.664;2023-08-20T12:47:40;27.50;99.90
18321;DHT22;54904;54.350;18.664;2023-08-20T12:50:07;27.50;99.90
18321;DHT22;54904;54.350;18.664;2023-08-20T12:52:35;27.50;99.90
18321;DHT22;54904;54.350;18.664;2023-08-20T12:55:03;27.50;99.90
18321;DHT22;54904;54.350;18.664;2023-08-20T12:57:30;27.60;99.90
18321;DHT22;54904;54.350;18.664;2023-08-20T12:59:58;27.70;99.90
18321;DHT22;54904;54.350;18.664;2023-08-20T13:02:25;27.80;99.90
18321;DHT22;54904;54.350;18.664;2023-08-20T13:04:54;27.90;99.90
18321;DHT22;54904;54.350;18.664;2023-08-20T13:07:22;27.90;99.90
18321;DHT22;54904;54.350;18.664;2023-08-20T13:09:50;28.00;99.90
18321;DHT22;54904;54.350;18.664;2023-08-20T13:12:18;28.10;99.90
18321;DHT22;54904;54.350;18.664;2023-08-20T13:14:47;28.10;99.90
18321;DHT22;54904;54.350;18.664;2023-08-20T13:17:15;28.10;99.90
18321;DHT22;54904;54.350;18.664;2023-08-20T13:19:42;28.20;99.90
18321;DHT22;54904;54.350;18.664;2023-08-20T13:22:11;28.20;99.90
18321;DHT22;54904;54.350;18.664;2023-08-20T13:24:38;28.20;99.90
18321;DHT22;54904;54.350;18.664;2023-08-20T13:27:05;28.30;99.90
18321;DHT22;54904;54.350;18.664;2023-08-20T13:29:32;28.30;99.90
18321;DHT22;54904;54.350;18.664;2023-08-20T13:32:00;28.30;99.90
18321;DHT22;54904;54.350;18.664;2023-08-20T13:34:27;28.30;99.90
18321;DHT22;54904;54.350;18.664;2023-08-20T13:36:54;29.40;99.90
18321;DHT22;54904;54.350;18.664;2023-08-20T13:39:24;28.30;99.90
18321;DHT22;54904;54.350;18.664;2023-08-20T13:41:51;28.30;99.90
18321;DHT22;54904;54.350;18.664;2023-08-20T13:44:20;28.30;99.90
18321;DHT22;54904;54.350;18.664;2023-08-20T13:46:47;28.30;99.90
18321;DHT22;54904;54.350;18.664;2023-08-20T13:49:14;28.30;99.90
18321;DHT22;54904;54.350;18.664;2023-08-20T13:51:41;28.30;99.90
18321;DHT22;54904;54.350;18.664;2023-08-20T13:54:08;28.40;99.90
18321;DHT22;54904;54.350;18.664;2023-08-20T13:56:36;28.40;99.90
18321;DHT22;54904;54.350;18.664;2023-08-20T13:59:04;28.40;99.90
18321;DHT22;54904;54.350;18.664;2023-08-20T14:01:31;28.40;99.90
18321;DHT22;54904;54.350;18.664;2023-08-20T14:03:58;28.40;99.90
18321;DHT22;54904;54.350;18.664;2023-08-20T14:06:25;28.30;99.90
18321;DHT22;54904;54.350;18.664;2023-08-20T14:08:52;28.20;99.90
18321;DHT22;54904;54.350;18.664;2023-08-20T14:11:19;28.20;99.90
18321;DHT22;54904;54.350;18.664;2023-08-20T14:13:48;28.10;99.90
18321;DHT22;54904;54.350;18.664;2023-08-20T14:16:15;28.00;99.90
18321;DHT22;54904;54.350;18.664;2023-08-20T14:18:42;28.00;99.90
18321;DHT22;54904;54.350;18.664;2023-08-20T14:21:10;28.00;99.90
18321;DHT22;54904;54.350;18.664;2023-08-20T14:23:37;28.00;99.90
18321;DHT22;54904;54.350;18.664;2023-08-20T14:26:05;27.90;99.90
18321;DHT22;54904;54.350;18.664;2023-08-20T14:28:33;27.90;99.90
18321;DHT22;54904;54.350;18.664;2023-08-20T14:31:03;27.80;99.90
18321;DHT22;54904;54.350;18.664;2023-08-20T14:33:30;27.70;99.90
18321;DHT22;54904;54.350;18.664;2023-08-20T14:36:00;27.70;99.90
18321;DHT22;54904;54.350;18.664;2023-08-20T14:38:28;27.70;99.90
18321;DHT22;54904;54.350;18.664;2023-08-20T14:40:59;27.70;99.90
18321;DHT22;54904;54.350;18.664;2023-08-20T14:43:26;27.60;99.90
18321;DHT22;54904;54.350;18.664;2023-08-20T14:45:53;27.60;99.90
18321;DHT22;54904;54.350;18.664;2023-08-20T14:48:22;27.60;99.90
18321;DHT22;54904;54.350;18.664;2023-08-20T14:50:49;27.60;99.90
18321;DHT22;54904;54.350;18.664;2023-08-20T14:53:16;27.50;99.90
18321;DHT22;54904;54.350;18.664;2023-08-20T14:55:44;27.50;99.90
18321;DHT22;54904;54.350;18.664;2023-08-20T14:58:11;27.50;99.90
18321;DHT22;54904;54.350;18.664;2023-08-20T15:00:38;27.40;99.90
18321;DHT22;54904;54.350;18.664;2023-08-20T15:03:06;27.40;99.90
18321;DHT22;54904;54.350;18.664;2023-08-20T15:05:34;27.40;99.90
18321;DHT22;54904;54.350;18.664;2023-08-20T15:08:02;27.40;99.90
18321;DHT22;54904;54.350;18.664;2023-08-20T15:10:30;27.30;99.90
18321;DHT22;54904;54.350;18.664;2023-08-20T15:12:57;27.30;99.90
18321;DHT22;54904;54.350;18.664;2023-08-20T15:15:24;27.30;99.90
18321;DHT22;54904;54.350;18.664;2023-08-20T15:17:54;27.30;99.90
18321;DHT22;54904;54.350;18.664;2023-08-20T15:20:21;27.20;99.90
18321;DHT22;54904;54.350;18.664;2023-08-20T15:22:52;27.20;99.90
18321;DHT22;54904;54.350;18.664;2023-08-20T15:25:22;27.10;99.90